Time;durP1;ratioP1;P1;durP2;ratioP2;P2;SDS_P1;SDS_P2;PMS_P1;PMS_P2;Temp;Humidity;BMP_temperature;BMP_pressure;BME280_temperature;BME280_humidity;BME280_pressure;Samples;Min_cycle;Max_cycle;Signal;HPM_P1;HPM_P2
2024/02/07 00:02:21;;;;;;;8.23;4.22;;;;;;;-5.48;63.13;98090.84;4780664;29;20070;-63
2024/02/07 00:04:47;;;;;;;9.73;4.40;;;;;;;-5.67;63.31;98066.63;4794968;29;20050;-63
2024/02/07 00:07:14;;;;;;;8.82;4.47;;;;;;;-5.50;63.49;98104.25;4775665;29;20049;-61
2024/02/07 00:09:40;;;;;;;12.07;4.78;;;;;;;-5.68;63.24;98074.22;4760086;29;20046;-63
2024/02/07 00:12:06;;;;;;;12.00;4.35;;;;;;;-5.67;63.34;98081.84;4768845;29;20428;-63
2024/02/07 00:14:32;;;;;;;10.20;4.95;;;;;;;-5.61;63.36;98082.03;4793141;29;20062;-65
2024/02/07 00:16:59;;;;;;;8.48;4.30;;;;;;;-5.55;63.50;98091.47;4767824;29;20050;-63
2024/02/07 00:19:25;;;;;;;12.10;4.45;;;;;;;-5.57;63.24;98093.09;4765285;29;20380;-67
2024/02/07 00:21:50;;;;;;;10.30;4.82;;;;;;;-5.65;63.16;98074.31;4791246;29;20043;-64
2024/02/07 00:24:16;;;;;;;8.90;4.20;;;;;;;-5.64;63.67;98079.41;4778611;29;20058;-64
2024/02/07 00:26:43;;;;;;;8.02;4.47;;;;;;;-5.72;63.56;98065.63;4794798;29;20079;-65
2024/02/07 00:29:12;;;;;;;10.35;5.10;;;;;;;-5.62;63.14;98087.03;4778671;29;20051;-66
2024/02/07 00:31:41;;;;;;;9.02;4.90;;;;;;;-5.77;62.83;98075.66;4781150;29;20427;-63
2024/02/07 00:34:07;;;;;;;8.90;4.75;;;;;;;-5.77;63.02;98074.81;4778302;29;20059;-63
2024/02/07 00:36:33;;;;;;;12.32;4.90;;;;;;;-5.87;63.45;98066.09;4791861;29;20046;-61
2024/02/07 00:38:59;;;;;;;10.27;4.72;;;;;;;-5.91;63.25;98049.06;4782261;29;20064;-65
2024/02/07 00:41:25;;;;;;;11.40;5.15;;;;;;;-5.63;63.69;98083.66;4781756;29;20474;-63
2024/02/07 00:43:55;;;;;;;10.32;5.25;;;;;;;-5.78;63.60;98048.59;4762618;29;20143;-63
2024/02/07 00:46:21;;;;;;;10.95;5.07;;;;;;;-5.51;63.66;98077.19;4761490;29;20043;-64
2024/02/07 00:48:47;;;;;;;9.60;5.03;;;;;;;-5.58;62.97;98050.81;4792856;29;20058;-64
2024/02/07 00:51:13;;;;;;;10.10;4.85;;;;;;;-5.45;63.95;98063.03;4776680;29;20038;-65
2024/02/07 00:53:39;;;;;;;7.70;5.05;;;;;;;-5.30;63.40;98077.81;4793256;29;20054;-64
2024/02/07 00:56:05;;;;;;;12.25;4.80;;;;;;;-5.23;63.33;98075.41;4781380;29;20138;-64
2024/02/07 00:58:32;;;;;;;8.38;4.80;;;;;;;-5.23;62.76;98078.81;4787897;29;20150;-63
2024/02/07 01:00:58;;;;;;;13.30;5.97;;;;;;;-5.34;62.87;98067.50;4781222;29;20167;-63
2024/02/07 01:03:24;;;;;;;12.35;5.28;;;;;;;-5.50;63.42;98069.66;4781777;29;20491;-63
2024/02/07 01:05:50;;;;;;;11.00;5.03;;;;;;;-5.53;63.38;98063.63;4779560;29;20053;-63
2024/02/07 01:08:17;;;;;;;11.75;5.47;;;;;;;-5.49;63.59;98078.09;4765980;29;20054;-65
2024/02/07 01:10:44;;;;;;;12.80;5.47;;;;;;;-5.67;63.55;98058.19;4776453;29;20042;-63
2024/02/07 01:13:11;;;;;;;11.20;5.47;;;;;;;-5.52;63.51;98071.28;4777655;29;20073;-64
2024/02/07 01:15:37;;;;;;;15.32;5.90;;;;;;;-5.46;63.98;98084.13;4777872;29;20047;-65
2024/02/07 01:18:04;;;;;;;17.60;6.60;;;;;;;-5.56;63.82;98064.41;4791663;29;20081;-63
2024/02/07 01:20:30;;;;;;;19.67;7.45;;;;;;;-5.55;63.91;98061.03;4777584;29;20046;-63
2024/02/07 01:22:56;;;;;;;16.02;7.15;;;;;;;-5.43;63.81;98065.59;4766496;29;20043;-64
2024/02/07 01:25:22;;;;;;;18.58;8.13;;;;;;;-5.30;64.12;98069.31;4793410;29;20100;-64
2024/02/07 01:27:49;;;;;;;19.63;7.22;;;;;;;-5.31;63.98;98044.78;4776545;29;20206;-64
2024/02/07 01:30:16;;;;;;;15.63;7.40;;;;;;;-5.23;63.91;98045.84;4781749;29;20381;-62
2024/02/07 01:32:48;;;;;;;15.85;7.32;;;;;;;-5.09;63.96;98045.34;4759789;29;20499;-64
2024/02/07 01:35:14;;;;;;;22.88;7.80;;;;;;;-4.96;64.02;98065.09;4765661;29;20046;-64
2024/02/07 01:37:43;;;;;;;19.50;7.90;;;;;;;-5.26;64.05;98011.91;4766736;29;20103;-65
2024/02/07 01:40:13;;;;;;;23.77;8.55;;;;;;;-5.04;64.16;98043.78;4766569;29;20155;-61
2024/02/07 01:42:40;;;;;;;20.15;7.25;;;;;;;-5.15;63.77;98020.66;4765814;29;20115;-63
2024/02/07 01:45:42;;;;;;;27.15;8.70;;;;;;;-5.08;63.84;98047.03;4779483;29;20035;-63
2024/02/07 01:48:09;;;;;;;21.08;7.40;;;;;;;-5.24;63.96;98033.97;4733028;30;20063;-64
2024/02/07 01:50:38;;;;;;;23.13;7.80;;;;;;;-5.25;64.04;98039.88;4768619;29;20081;-63
2024/02/07 01:53:07;;;;;;;24.80;8.10;;;;;;;-5.24;64.18;98038.19;4782070;29;20115;-63
2024/02/07 01:55:35;;;;;;;18.15;7.45;;;;;;;-5.23;63.62;98037.38;4792604;29;20141;-63
2024/02/07 01:58:06;;;;;;;20.40;8.70;;;;;;;-5.24;63.88;98028.91;4796210;29;20367;-60
2024/02/07 02:00:32;;;;;;;19.92;7.05;;;;;;;-5.34;63.67;98027.81;4795989;29;20051;-64
2024/02/07 02:02:58;;;;;;;16.58;7.30;;;;;;;-5.43;63.42;98021.66;4765887;29;20375;-63
2024/02/07 02:05:24;;;;;;;23.25;7.45;;;;;;;-5.51;63.67;98017.22;4765516;29;20120;-65
2024/02/07 02:07:51;;;;;;;25.05;7.95;;;;;;;-5.49;63.62;98030.81;4794890;29;20495;-63
2024/02/07 02:10:17;;;;;;;18.55;7.22;;;;;;;-5.62;63.67;98024.53;4754728;29;20058;-63
2024/02/07 02:12:44;;;;;;;24.52;8.95;;;;;;;-5.59;63.53;98028.81;4783034;29;20568;-65
2024/02/07 02:15:15;;;;;;;30.27;8.85;;;;;;;-5.73;63.84;98000.56;4791975;29;20043;-63
2024/02/07 02:17:42;;;;;;;22.08;8.45;;;;;;;-5.48;63.55;98022.38;4794988;29;20117;-63
2024/02/07 02:20:09;;;;;;;22.42;8.48;;;;;;;-5.54;64.21;97996.00;4774878;29;20145;-63
2024/02/07 02:22:46;;;;;;;37.80;10.02;;;;;;;-5.41;64.00;98015.78;4792016;29;20047;-64
2024/02/07 02:25:31;;;;;;;38.33;10.95;;;;;;;-5.38;63.42;98013.34;4765622;29;20055;-65
2024/02/07 02:28:07;;;;;;;40.45;11.00;;;;;;;-5.29;63.82;98021.16;4779275;29;20062;-63
2024/02/07 02:30:47;;;;;;;41.63;10.38;;;;;;;-5.38;63.91;97999.78;4777479;29;20574;-62
2024/02/07 02:33:18;;;;;;;34.50;10.98;;;;;;;-5.37;63.80;98001.50;4791995;29;20046;-63
2024/02/07 02:35:49;;;;;;;40.53;11.17;;;;;;;-5.22;64.33;98003.56;4775253;29;20155;-64
2024/02/07 02:38:16;;;;;;;57.57;12.47;;;;;;;-5.18;64.06;97998.59;4779507;29;20050;-63
2024/02/07 02:40:43;;;;;;;63.50;14.23;;;;;;;-5.18;63.92;97996.06;4779586;29;20299;-64
2024/02/07 02:43:12;;;;;;;78.75;16.25;;;;;;;-5.15;64.00;98005.44;4780688;29;20098;-65
2024/02/07 02:45:38;;;;;;;68.00;16.05;;;;;;;-5.09;63.88;98009.81;4774799;29;20490;-64
2024/02/07 02:48:05;;;;;;;84.40;15.85;;;;;;;-5.12;64.24;98003.00;4779823;29;20061;-65
2024/02/07 02:50:32;;;;;;;98.25;17.50;;;;;;;-5.00;64.14;98004.97;4780739;29;20049;-64
2024/02/07 02:52:58;;;;;;;75.30;15.95;;;;;;;-4.97;63.71;97994.91;4780798;29;20051;-62
2024/02/07 02:55:26;;;;;;;97.40;17.55;;;;;;;-4.89;63.74;98005.25;4791568;29;20051;-64
2024/02/07 02:57:55;;;;;;;138.88;20.13;;;;;;;-4.90;63.70;97994.22;4791734;29;20054;-64
2024/02/07 03:00:21;;;;;;;78.03;18.17;;;;;;;-4.89;64.28;97984.94;4779655;29;20450;-65
2024/02/07 03:02:48;;;;;;;109.70;19.00;;;;;;;-4.97;63.56;97997.44;4760023;29;20499;-64
2024/02/07 03:05:37;;;;;;;93.18;16.58;;;;;;;-5.03;63.91;97994.75;4775504;29;20046;-64
2024/02/07 03:08:16;;;;;;;51.58;13.60;;;;;;;-5.14;64.30;97989.41;4791868;29;20613;-64
2024/02/07 03:10:45;;;;;;;43.10;10.90;;;;;;;-5.18;64.18;97991.00;4761837;29;20145;-63
2024/02/07 03:13:15;;;;;;;43.88;9.70;;;;;;;-5.17;63.75;98002.03;4760714;29;20057;-63
2024/02/07 03:15:41;;;;;;;21.33;7.82;;;;;;;-5.20;63.90;98001.94;4768501;29;20054;-64
2024/02/07 03:18:07;;;;;;;55.25;7.25;;;;;;;-5.30;63.89;98000.84;4795120;29;20047;-65
2024/02/07 03:20:35;;;;;;;24.73;6.72;;;;;;;-5.54;64.20;97974.03;4790436;29;20137;-64
2024/02/07 03:23:01;;;;;;;50.20;7.30;;;;;;;-5.46;63.91;97994.50;4778558;29;20573;-65
2024/02/07 03:25:27;;;;;;;70.43;8.25;;;;;;;-5.48;64.18;97991.06;4779496;29;20047;-66
2024/02/07 03:27:54;;;;;;;26.42;6.28;;;;;;;-5.50;64.81;97985.97;4794653;29;20046;-62
2024/02/07 03:30:21;;;;;;;26.33;6.93;;;;;;;-5.46;63.98;97982.72;4778500;29;20073;-65
2024/02/07 03:32:49;;;;;;;42.50;7.70;;;;;;;-5.54;64.37;97960.53;4791452;29;20447;-64
2024/02/07 03:35:15;;;;;;;22.45;6.53;;;;;;;-5.46;64.21;97969.16;4778369;29;20047;-66
2024/02/07 03:37:41;;;;;;;35.65;10.07;;;;;;;-5.52;64.48;97967.34;4784909;29;20047;-63
2024/02/07 03:40:13;;;;;;;57.28;8.65;;;;;;;-5.81;63.47;97936.16;4761119;29;20084;-62
2024/02/07 03:42:41;;;;;;;22.40;6.50;;;;;;;-5.91;64.54;97909.72;4775079;29;20156;-62
2024/02/07 03:45:14;;;;;;;64.70;7.90;;;;;;;-5.50;64.40;97962.28;4755074;29;20130;-63
2024/02/07 03:47:47;;;;;;;52.42;7.80;;;;;;;-5.42;64.41;97968.44;4778727;29;20136;-63
2024/02/07 03:50:16;;;;;;;65.47;9.23;;;;;;;-5.42;64.25;97965.03;4760868;29;20042;-64
2024/02/07 03:52:44;;;;;;;24.70;7.35;;;;;;;-5.45;64.20;97960.75;4775011;29;20039;-64
2024/02/07 03:55:12;;;;;;;26.98;6.25;;;;;;;-5.31;64.55;97963.63;4779933;29;20050;-62
2024/02/07 03:57:43;;;;;;;37.97;6.15;;;;;;;-5.27;64.41;97960.34;4754860;29;20066;-62
2024/02/07 04:00:15;;;;;;;40.13;6.63;;;;;;;-5.53;63.94;97947.03;4784890;29;20144;-64
2024/02/07 04:02:45;;;;;;;25.35;5.72;;;;;;;-5.61;64.38;97960.34;4771947;29;20046;-63
2024/02/07 04:05:12;;;;;;;23.33;6.20;;;;;;;-5.52;64.39;97954.66;4777783;29;20506;-65
2024/02/07 04:07:38;;;;;;;17.92;6.18;;;;;;;-5.62;64.30;97925.69;4764667;29;20058;-63
2024/02/07 04:10:09;;;;;;;17.55;6.03;;;;;;;-5.49;64.10;97941.19;4793622;29;20487;-62
2024/02/07 05:16:01;;;;;;;10.15;4.95;;;;;;;-5.23;63.62;97870.84;4793124;29;20051;-63
2024/02/07 05:18:28;;;;;;;10.43;5.18;;;;;;;-5.35;63.53;97868.88;4793238;29;20046;-61
2024/02/07 05:20:54;;;;;;;11.90;5.10;;;;;;;-5.42;63.66;97867.00;4780347;29;20188;-63
2024/02/07 05:23:20;;;;;;;9.88;4.60;;;;;;;-5.46;63.87;97853.41;4793533;29;20175;-63
2024/02/07 05:25:50;;;;;;;11.20;5.10;;;;;;;-5.38;63.69;97861.19;4767520;29;21479;-60
2024/02/07 05:28:16;;;;;;;10.73;5.03;;;;;;;-5.50;63.48;97843.13;4791058;29;20355;-62
2024/02/07 05:30:42;;;;;;;8.35;4.75;;;;;;;-5.37;63.90;97841.75;4763385;29;20043;-62
2024/02/07 05:33:09;;;;;;;9.70;4.63;;;;;;;-5.19;64.38;97839.66;4794363;29;20919;-62
2024/02/07 05:35:35;;;;;;;9.70;4.57;;;;;;;-5.18;63.93;97827.81;4795365;29;20054;-62
2024/02/07 05:38:02;;;;;;;7.85;4.30;;;;;;;-5.17;63.77;97834.59;4778227;29;20515;-65
2024/02/07 05:40:28;;;;;;;10.65;4.75;;;;;;;-5.27;63.25;97847.88;4779399;29;20073;-62
2024/02/07 05:42:58;;;;;;;7.97;4.53;;;;;;;-5.25;63.42;97854.72;4779505;29;20070;-63
2024/02/07 05:45:24;;;;;;;7.70;4.15;;;;;;;-5.27;62.85;97831.00;4778257;29;20048;-64
2024/02/07 05:47:54;;;;;;;10.77;4.50;;;;;;;-5.42;63.49;97806.16;4765414;29;20047;-63
2024/02/07 05:50:24;;;;;;;6.68;3.80;;;;;;;-5.14;63.49;97817.78;4776150;29;20141;-63
2024/02/07 05:52:51;;;;;;;11.23;4.20;;;;;;;-5.23;63.00;97830.25;4777920;29;20048;-64
2024/02/07 05:55:20;;;;;;;8.70;4.13;;;;;;;-5.19;64.20;97816.84;4763446;29;20047;-60
2024/02/07 05:57:47;;;;;;;10.18;4.15;;;;;;;-5.32;63.30;97797.06;4791924;29;20087;-64
2024/02/07 06:00:14;;;;;;;11.45;4.85;;;;;;;-4.99;63.98;97824.03;4781040;29;20479;-63
2024/02/07 06:02:41;;;;;;;9.60;4.40;;;;;;;-4.85;63.30;97817.53;4765045;29;20053;-64
2024/02/07 06:05:07;;;;;;;8.73;4.63;;;;;;;-4.71;63.55;97812.75;4780694;29;20047;-62
2024/02/07 06:07:34;;;;;;;7.78;3.83;;;;;;;-4.66;63.18;97810.28;4762646;29;20042;-62
2024/02/07 06:10:04;;;;;;;8.18;4.03;;;;;;;-4.86;63.30;97777.75;4791130;29;20042;-62
2024/02/07 06:12:33;;;;;;;;;;;;;;;-4.69;63.35;97793.34;4783585;29;20080;-61
2024/02/07 06:15:00;;;;;;;14.23;6.72;;;;;;;-4.59;63.54;97784.22;4793669;29;20381;-62
2024/02/07 06:17:29;;;;;;;21.15;12.38;;;;;;;-4.61;63.18;97790.06;4794470;29;20051;-63
2024/02/07 06:19:55;;;;;;;12.35;6.18;;;;;;;-4.58;62.71;97785.06;4794709;29;20047;-66
2024/02/07 06:22:21;;;;;;;9.52;5.40;;;;;;;-4.56;63.21;97793.56;4793704;29;20051;-62
2024/02/07 06:24:47;;;;;;;10.88;5.40;;;;;;;-4.66;62.74;97767.13;4780311;29;20054;-63
2024/02/07 06:27:13;;;;;;;9.75;5.03;;;;;;;-4.60;62.11;97774.88;4772886;29;20495;-63
2024/02/07 06:29:39;;;;;;;11.00;5.15;;;;;;;-4.63;63.05;97766.38;4778007;29;20179;-63
2024/02/07 06:32:05;;;;;;;11.27;4.68;;;;;;;-4.36;63.21;97760.06;4792562;29;20043;-62
2024/02/07 06:34:32;;;;;;;15.55;4.22;;;;;;;-4.14;63.24;97753.69;4793921;29;20054;-63
2024/02/07 06:37:02;;;;;;;12.40;5.78;;;;;;;-4.11;63.07;97746.13;4792649;29;20531;-64
2024/02/07 06:39:29;;;;;;;12.07;4.80;;;;;;;-4.28;61.12;97733.13;4777647;29;20051;-64
2024/02/07 06:41:55;;;;;;;13.45;4.95;;;;;;;-4.52;62.45;97715.78;4777492;29;20105;-64
2024/02/07 06:44:21;;;;;;;12.07;5.43;;;;;;;-4.62;61.38;97743.53;4769626;29;20046;-64
2024/02/07 06:46:47;;;;;;;11.63;5.72;;;;;;;-4.67;61.66;97744.28;4793849;29;20548;-64
2024/02/07 06:49:16;;;;;;;12.93;5.47;;;;;;;-4.57;63.09;97743.59;4778336;29;20124;-61
2024/02/07 06:51:42;;;;;;;12.70;5.25;;;;;;;-4.65;62.25;97713.00;4793996;29;20054;-63
2024/02/07 06:54:09;;;;;;;13.73;6.00;;;;;;;-4.27;62.95;97732.28;4776405;29;20051;-64
2024/02/07 06:56:35;;;;;;;13.70;5.13;;;;;;;-4.03;63.45;97718.28;4792651;29;20050;-64
2024/02/07 06:59:01;;;;;;;12.50;5.10;;;;;;;-3.87;62.83;97707.53;4780599;29;20076;-66
2024/02/07 07:01:28;;;;;;;11.63;4.50;;;;;;;-3.86;61.75;97724.50;4795911;29;20054;-63
2024/02/07 07:03:55;;;;;;;13.20;5.47;;;;;;;-4.16;61.05;97695.22;4764300;29;20081;-63
2024/02/07 07:06:21;;;;;;;9.68;4.30;;;;;;;-4.26;61.95;97691.66;4777302;29;20047;-63
2024/02/07 07:08:47;;;;;;;7.88;4.28;;;;;;;-4.28;62.50;97700.09;4780585;29;20293;-64
2024/02/07 07:11:13;;;;;;;8.98;4.57;;;;;;;-4.35;61.51;97677.97;4778243;29;20585;-63
2024/02/07 07:13:39;;;;;;;10.25;4.32;;;;;;;-4.22;62.32;97674.81;4793285;29;20078;-66
2024/02/07 07:16:08;;;;;;;11.23;3.92;;;;;;;-4.43;61.37;97637.22;4792155;29;20136;-63
2024/02/07 07:18:34;;;;;;;9.40;4.70;;;;;;;-4.62;61.91;97624.22;4778758;29;20046;-63
2024/02/07 07:21:00;;;;;;;11.60;5.05;;;;;;;-4.52;62.26;97637.91;4793121;29;20050;-62
2024/02/07 07:23:26;;;;;;;10.98;4.97;;;;;;;-4.64;62.00;97618.25;4780559;29;20583;-64
2024/02/07 07:25:52;;;;;;;13.13;6.20;;;;;;;-4.59;62.04;97620.88;4764743;29;20129;-64
2024/02/07 07:28:18;;;;;;;14.65;6.38;;;;;;;-4.74;62.01;97609.63;4791634;29;20111;-65
2024/02/07 07:30:44;;;;;;;14.90;7.13;;;;;;;-4.73;62.31;97583.44;4791483;29;20502;-62
2024/02/07 07:33:10;;;;;;;15.60;7.70;;;;;;;-4.57;63.18;97553.19;4766931;29;20062;-63
2024/02/07 07:35:36;;;;;;;15.50;6.78;;;;;;;-4.35;62.71;97581.47;4783827;29;20146;-63
2024/02/07 07:38:04;;;;;;;15.88;6.47;;;;;;;-4.56;61.26;97571.00;4797121;29;20063;-63
2024/02/07 07:40:31;;;;;;;14.10;6.85;;;;;;;-4.82;62.30;97557.88;4782002;29;20075;-63
2024/02/07 07:42:58;;;;;;;15.48;6.85;;;;;;;-4.59;63.17;97578.59;4795100;29;20051;-63
2024/02/07 07:45:24;;;;;;;22.00;8.75;;;;;;;-4.55;63.20;97618.44;4794624;29;20057;-63
2024/02/07 07:47:50;;;;;;;16.75;7.22;;;;;;;-4.35;63.48;97622.09;4780027;29;20055;-65
2024/02/07 07:50:17;;;;;;;14.27;6.80;;;;;;;-4.05;63.65;97644.56;4795992;29;20050;-63
2024/02/07 07:52:42;;;;;;;16.45;6.07;;;;;;;-3.90;63.07;97648.19;4763959;29;20051;-63
2024/02/07 07:55:09;;;;;;;14.40;6.00;;;;;;;-3.96;63.17;97609.13;4763507;29;20047;-62
2024/02/07 07:57:35;;;;;;;16.55;6.15;;;;;;;-3.83;63.09;97610.16;4783334;29;20645;-63
2024/02/07 08:00:01;;;;;;;13.90;5.30;;;;;;;-4.04;61.96;97585.28;4767967;29;20057;-61
2024/02/07 08:02:38;;;;;;;14.82;6.25;;;;;;;-4.17;62.92;97616.44;4794200;29;20577;-63
2024/02/07 08:05:05;;;;;;;17.33;6.20;;;;;;;-3.94;63.26;97622.72;4794802;29;20085;-63
2024/02/07 08:07:31;;;;;;;15.70;5.93;;;;;;;-3.83;63.31;97591.50;4782676;29;20144;-62
2024/02/07 08:09:57;;;;;;;13.65;6.00;;;;;;;-3.65;62.60;97608.69;4782195;29;20141;-63
2024/02/07 08:12:23;;;;;;;12.63;5.75;;;;;;;-3.51;63.41;97608.88;4794718;29;20075;-63
2024/02/07 08:14:49;;;;;;;17.33;7.10;;;;;;;-3.52;62.81;97563.91;4796368;29;20051;-61
2024/02/07 08:17:18;;;;;;;13.07;5.72;;;;;;;-3.47;61.64;97582.63;4796438;29;20058;-61
2024/02/07 08:19:46;;;;;;;21.17;8.07;;;;;;;-3.59;62.98;97572.31;4794856;29;20074;-59
2024/02/07 08:22:13;;;;;;;21.02;8.80;;;;;;;-3.74;62.28;97537.38;4765363;29;20137;-60
2024/02/07 08:24:40;;;;;;;24.08;10.68;;;;;;;-3.80;62.49;97528.00;4793826;29;20144;-61
2024/02/07 08:27:06;;;;;;;31.70;11.70;;;;;;;-3.57;62.86;97517.25;4780815;29;20378;-63
2024/02/07 08:29:32;;;;;;;36.08;13.63;;;;;;;-3.79;62.32;97504.28;4793497;29;20053;-63
2024/02/07 08:31:58;;;;;;;30.40;12.95;;;;;;;-3.88;62.78;97519.44;4792869;29;20039;-64
2024/02/07 08:34:24;;;;;;;38.38;14.25;;;;;;;-3.67;62.77;97506.13;4795123;29;20418;-63
2024/02/07 08:36:50;;;;;;;27.15;11.52;;;;;;;-3.64;63.07;97508.69;4796009;29;20078;-63
2024/02/07 08:39:16;;;;;;;24.75;9.90;;;;;;;-3.84;62.23;97485.56;4779242;29;20087;-63
2024/02/07 08:41:42;;;;;;;23.40;8.65;;;;;;;-4.06;62.71;97480.25;4779266;29;20134;-63
2024/02/07 08:44:09;;;;;;;15.48;7.53;;;;;;;-3.96;63.35;97482.06;4794113;29;20141;-64
2024/02/07 08:46:35;;;;;;;17.23;6.70;;;;;;;-3.79;62.92;97473.78;4770928;29;20680;-61
2024/02/07 08:49:01;;;;;;;20.55;7.60;;;;;;;-4.03;62.21;97470.13;4778700;29;20063;-61
2024/02/07 08:51:27;;;;;;;20.00;7.30;;;;;;;-3.89;63.38;97456.75;4781348;29;20455;-64
2024/02/07 08:53:53;;;;;;;20.30;6.57;;;;;;;-3.65;63.32;97466.31;4780628;29;20050;-64
2024/02/07 08:56:19;;;;;;;12.25;5.80;;;;;;;-3.56;63.40;97437.56;4778973;29;20074;-65
2024/02/07 08:58:45;;;;;;;15.40;6.22;;;;;;;-3.38;63.65;97430.13;4777992;29;20487;-64
2024/02/07 09:01:13;;;;;;;13.32;5.80;;;;;;;-3.50;62.80;97438.47;4778477;29;20069;-64
2024/02/07 09:03:40;;;;;;;15.82;6.75;;;;;;;-3.67;63.43;97407.84;4781562;29;20150;-65
2024/02/07 09:06:10;;;;;;;10.55;4.80;;;;;;;-3.58;62.40;97426.53;4778602;29;20043;-65
2024/02/07 09:08:36;;;;;;;12.23;4.30;;;;;;;-3.84;62.38;97416.97;4795767;29;20046;-63
2024/02/07 09:11:02;;;;;;;13.68;5.75;;;;;;;-3.61;63.46;97422.28;4791778;29;20111;-67
2024/02/07 09:13:28;;;;;;;12.27;5.03;;;;;;;-3.62;62.87;97397.69;4795955;29;20109;-65
2024/02/07 09:15:54;;;;;;;12.98;5.47;;;;;;;-3.99;62.28;97360.06;4781691;29;20050;-64
2024/02/07 09:18:19;;;;;;;11.88;5.32;;;;;;;-3.87;62.67;97386.47;4796188;29;21529;-64
2024/02/07 09:20:45;;;;;;;14.55;5.45;;;;;;;-3.76;63.47;97402.66;4777552;29;20054;-64
2024/02/07 09:23:11;;;;;;;10.60;5.22;;;;;;;-3.58;63.68;97394.34;4779909;29;20155;-63
2024/02/07 09:25:37;;;;;;;20.70;8.48;;;;;;;-3.58;62.43;97385.84;4770502;29;20356;-61
2024/02/07 09:28:03;;;;;;;21.58;8.93;;;;;;;-3.71;62.97;97349.31;4791477;29;20090;-64
2024/02/07 09:30:29;;;;;;;21.83;9.57;;;;;;;-3.69;63.70;97343.41;4780239;29;20053;-64
2024/02/07 09:32:55;;;;;;;28.58;10.05;;;;;;;-3.73;63.04;97317.94;4777585;29;20051;-64
2024/02/07 09:35:21;;;;;;;20.88;9.50;;;;;;;-3.73;63.11;97317.94;4777459;29;20055;-63
2024/02/07 09:37:47;;;;;;;23.00;10.73;;;;;;;-3.71;62.63;97309.50;4781746;29;20196;-63
2024/02/07 09:40:13;;;;;;;24.02;10.00;;;;;;;-3.82;64.00;97288.22;4794232;29;20047;-64
2024/02/07 09:42:43;;;;;;;26.70;9.25;;;;;;;-3.49;64.17;97289.31;4781441;29;20499;-62
2024/02/07 09:45:12;;;;;;;20.92;8.60;;;;;;;-3.40;64.15;97273.25;4793558;29;20104;-63
2024/02/07 09:47:47;;;;;;;15.10;6.38;;;;;;;-3.50;63.37;97263.03;4781517;29;20063;-62
2024/02/07 09:50:15;;;;;;;17.60;7.25;;;;;;;-3.51;63.48;97246.06;4777672;29;20051;-62
2024/02/07 09:52:43;;;;;;;13.43;4.85;;;;;;;-3.77;62.93;97240.81;4791614;29;20098;-63
2024/02/07 09:55:10;;;;;;;13.75;6.47;;;;;;;-3.76;63.79;97241.69;4775599;29;20077;-63
2024/02/07 09:57:37;;;;;;;13.13;5.43;;;;;;;-3.75;62.67;97241.66;4780830;29;20054;-64
2024/02/07 10:00:04;;;;;;;14.75;5.50;;;;;;;-3.86;63.36;97228.88;4777906;29;20050;-61
2024/02/07 10:02:37;;;;;;;12.98;5.57;;;;;;;-3.94;63.21;97215.25;4793994;29;20043;-64
2024/02/07 10:05:05;;;;;;;10.88;5.05;;;;;;;-3.95;63.66;97216.09;4750771;29;20053;-64
2024/02/07 10:07:34;;;;;;;10.95;4.68;;;;;;;-3.91;64.03;97204.28;4780006;29;20159;-62
2024/02/07 10:10:00;;;;;;;9.35;5.13;;;;;;;-4.13;63.91;97159.25;4791878;29;20534;-63
2024/02/07 10:12:26;;;;;;;13.90;6.10;;;;;;;-3.87;64.71;97175.53;4778647;29;20077;-62
2024/02/07 10:14:52;;;;;;;15.38;7.00;;;;;;;-3.79;64.63;97168.78;4775848;29;20463;-62
2024/02/07 10:17:19;;;;;;;15.43;6.03;;;;;;;-4.07;64.10;97133.03;4777419;29;20043;-62
2024/02/07 10:19:45;;;;;;;13.55;5.70;;;;;;;-3.88;64.52;97151.78;4776313;29;20065;-65
2024/02/07 10:22:20;;;;;;;12.48;6.13;;;;;;;-3.78;64.33;97145.06;4794029;29;20066;-66
2024/02/07 10:24:46;;;;;;;12.27;5.90;;;;;;;-3.96;63.57;97131.41;4779095;29;20130;-62
2024/02/07 10:27:19;;;;;;;14.55;7.60;;;;;;;-3.95;64.91;97107.72;4764230;29;20057;-64
2024/02/07 10:29:46;;;;;;;17.35;8.05;;;;;;;-3.86;64.91;97089.13;4792707;29;20465;-64
2024/02/07 10:32:21;;;;;;;21.17;8.43;;;;;;;-3.72;64.77;97106.13;4765575;29;20043;-63
2024/02/07 10:34:53;;;;;;;16.75;7.15;;;;;;;-3.74;63.71;97080.69;4780445;29;20042;-62
2024/02/07 10:37:20;;;;;;;18.85;7.90;;;;;;;-3.85;64.74;97064.53;4780292;29;20527;-61
2024/02/07 10:39:46;;;;;;;16.13;7.15;;;;;;;-4.09;64.23;97043.28;4780087;29;20507;-61
2024/02/07 10:42:14;;;;;;;16.40;7.55;;;;;;;-4.14;64.50;97047.47;4791639;29;20050;-64
2024/02/07 10:44:40;;;;;;;12.82;6.00;;;;;;;-4.07;64.62;97055.97;4777493;29;20070;-64
2024/02/07 10:47:10;;;;;;;13.50;6.28;;;;;;;-4.15;64.52;97046.59;4792249;29;20183;-63
2024/02/07 10:49:36;;;;;;;16.15;6.55;;;;;;;-4.29;64.49;97038.06;4778964;29;20504;-65
2024/02/07 10:52:02;;;;;;;14.02;6.07;;;;;;;-4.43;64.58;97020.22;4792894;29;20061;-65
2024/02/07 10:54:29;;;;;;;10.77;5.43;;;;;;;-4.32;64.73;96984.72;4779777;29;20160;-63
2024/02/07 10:56:58;;;;;;;12.80;5.82;;;;;;;-4.14;64.91;96976.34;4779831;29;20161;-63
2024/02/07 10:59:26;;;;;;;13.27;6.32;;;;;;;-4.19;65.51;96950.06;4779644;29;20467;-64
2024/02/07 11:01:53;;;;;;;12.82;6.13;;;;;;;-4.11;64.85;96956.03;4792638;29;20054;-64
2024/02/07 11:04:20;;;;;;;12.88;6.35;;;;;;;-4.10;65.12;96939.97;4764736;29;20062;-64
2024/02/07 11:06:47;;;;;;;8.40;3.90;;;;;;;-4.21;65.14;96901.81;4782984;29;20043;-63
2024/02/07 11:09:13;;;;;;;16.48;7.00;;;;;;;-4.26;65.61;96884.00;4794278;29;20046;-64
2024/02/07 11:11:40;;;;;;;12.00;5.75;;;;;;;-4.03;65.84;96910.34;4794490;29;20047;-63
2024/02/07 11:14:10;;;;;;;12.00;5.85;;;;;;;-3.99;65.93;96877.31;4781727;29;20057;-63
2024/02/07 11:16:37;;;;;;;12.85;5.72;;;;;;;-3.89;65.57;96890.06;4792812;29;20076;-64
2024/02/07 11:19:03;;;;;;;12.27;5.28;;;;;;;-4.02;65.34;96881.56;4778842;29;20161;-64
2024/02/07 11:21:34;;;;;;;11.82;5.35;;;;;;;-4.18;65.76;96850.19;4766971;29;20046;-65
2024/02/07 11:24:01;;;;;;;12.25;6.18;;;;;;;-4.23;65.23;96862.88;4768524;29;20510;-61
2024/02/07 11:26:28;;;;;;;12.25;6.20;;;;;;;-4.35;65.68;96857.75;4768380;29;20046;-64
2024/02/07 11:28:55;;;;;;;9.68;5.43;;;;;;;-4.50;64.84;96845.84;4783945;29;20108;-63
2024/02/07 11:31:22;;;;;;;16.40;6.32;;;;;;;-4.57;65.33;96856.00;4796555;29;20050;-64
2024/02/07 11:33:52;;;;;;;14.38;5.95;;;;;;;-4.67;65.33;96859.31;4792826;29;20051;-65
2024/02/07 11:36:18;;;;;;;14.77;6.00;;;;;;;-4.36;66.49;96874.69;4783997;29;20051;-63
2024/02/07 11:38:52;;;;;;;9.40;5.60;;;;;;;-4.39;66.12;96887.38;4780504;29;20139;-64
2024/02/07 11:41:22;;;;;;;11.02;5.50;;;;;;;-4.51;65.74;96872.94;4782595;29;20431;-64
2024/02/07 11:43:54;;;;;;;14.93;6.25;;;;;;;-4.43;67.32;96868.75;4751657;29;20049;-63
2024/02/07 11:46:22;;;;;;;11.68;5.75;;;;;;;-4.42;66.13;96875.50;4796781;29;20046;-63
2024/02/07 11:48:59;;;;;;;13.00;6.15;;;;;;;-4.33;66.98;96876.38;4780393;29;20055;-63
2024/02/07 11:51:25;;;;;;;15.63;7.43;;;;;;;-4.18;67.09;96862.88;4764850;29;20507;-63
2024/02/07 11:54:05;;;;;;;15.32;6.35;;;;;;;-4.26;66.63;96881.47;4777961;29;20053;-64
2024/02/07 11:56:32;;;;;;;9.18;5.32;;;;;;;-4.36;66.02;96874.69;4762486;29;20043;-65
2024/02/07 11:59:00;;;;;;;12.25;6.07;;;;;;;-4.12;67.26;96895.94;4780018;29;20431;-63
2024/02/07 12:01:27;;;;;;;12.30;4.55;;;;;;;-4.36;65.78;96887.38;4779235;29;20050;-65
2024/02/07 12:03:57;;;;;;;17.52;5.60;;;;;;;-4.49;66.19;96890.69;4766250;29;20055;-63
2024/02/07 12:06:24;;;;;;;11.95;6.25;;;;;;;-4.66;66.90;96863.56;4781139;29;20194;-63
2024/02/07 12:08:50;;;;;;;11.50;5.65;;;;;;;-4.43;67.24;96861.13;4764824;29;20577;-64
2024/02/07 12:11:16;;;;;;;22.27;8.15;;;;;;;-4.35;66.90;96867.91;4778729;29;20426;-64
2024/02/07 12:13:42;;;;;;;16.30;6.68;;;;;;;-4.33;66.90;96856.06;4765831;29;20055;-63
2024/02/07 12:16:09;;;;;;;14.63;6.68;;;;;;;-4.17;67.57;96831.56;4777373;29;20050;-64
2024/02/07 12:18:36;;;;;;;12.60;6.20;;;;;;;-4.22;66.30;96825.63;4764319;29;20146;-63
2024/02/07 12:21:03;;;;;;;12.35;4.90;;;;;;;-4.07;67.30;96822.25;4777138;29;20404;-64
2024/02/07 12:23:31;;;;;;;12.02;5.38;;;;;;;-4.04;66.54;96777.38;4777489;29;20573;-63
2024/02/07 12:26:01;;;;;;;13.43;5.30;;;;;;;-4.13;67.01;96752.00;4743242;29;20516;-62
2024/02/07 12:28:28;;;;;;;11.23;4.75;;;;;;;-4.21;65.54;96751.13;4779814;29;20043;-63
2024/02/07 12:30:59;;;;;;;9.30;3.95;;;;;;;-4.54;65.85;96715.53;4779489;29;20108;-60
2024/02/07 12:33:25;;;;;;;7.82;3.92;;;;;;;-4.56;65.76;96712.16;4776484;29;20047;-61